Time;durP1;ratioP1;P1;durP2;ratioP2;P2;SDS_P1;SDS_P2;PMS_P1;PMS_P2;Temp;Humidity;BMP_temperature;BMP_pressure;BME280_temperature;BME280_humidity;BME280_pressure;Samples;Min_cycle;Max_cycle;Signal;HPM_P1;HPM_P2
2022/04/16 00:00:49;;;;;;;;;;;8.70;99.90;;;;;;5111896;28;20060;-72
2022/04/16 00:03:15;;;;;;;;;;;8.30;99.80;;;;;;5112776;28;19957;-72
2022/04/16 00:05:41;;;;;;;;;;;;;;;;;;5093640;28;19988;-72
2022/04/16 00:08:07;;;;;;;;;;;8.50;99.90;;;;;;5112658;28;19908;-72
2022/04/16 00:10:32;;;;;;;;;;;;;;;;;;5111922;28;20314;-72
2022/04/16 00:12:59;;;;;;;;;;;;;;;;;;5112650;28;19912;-72
2022/04/16 00:15:25;;;;;;;;;;;8.20;99.90;;;;;;5094307;28;19994;-72
2022/04/16 00:17:51;;;;;;;;;;;;;;;;;;5093740;28;19912;-72
2022/04/16 00:20:27;;;;;;;;;;;;;;;;;;5112585;28;19915;-73
2022/04/16 00:22:53;;;;;;;;;;;;;;;;;;5112023;28;19946;-72
2022/04/16 00:25:19;;;;;;;;;;;8.70;99.90;;;;;;5094251;28;20334;-72
2022/04/16 00:27:44;;;;;;;;;;;8.50;99.90;;;;;;5111707;28;19908;-72
2022/04/16 00:30:10;;;;;;;;;;;;;;;;;;5112531;28;19915;-72
2022/04/16 00:32:36;;;;;;;;;;;;;;;;;;5111604;28;20006;-72
2022/04/16 00:35:02;;;;;;;;;;;;;;;;;;5112437;28;19911;-72
2022/04/16 00:37:28;;;;;;;;;;;8.30;99.90;;;;;;5112108;28;19912;-72
2022/04/16 00:39:54;;;;;;;;;;;;;;;;;;5111939;28;19908;-72
2022/04/16 00:42:19;;;;;;;;;;;;;;;;;;5113166;28;20010;-72
2022/04/16 00:44:45;;;;;;;;;;;8.40;99.90;;;;;;5115391;28;19912;-72
2022/04/16 00:47:12;;;;;;;;;;;;;;;;;;5116261;28;19934;-72
2022/04/16 00:49:38;;;;;;;;;;;8.50;99.90;;;;;;5115376;28;20002;-72
2022/04/16 00:52:04;;;;;;;;;;;9.10;99.90;;;;;;5116086;28;20346;-73
2022/04/16 00:54:30;;;;;;;;;;;;;;;;;;5115725;28;19908;-72
2022/04/16 00:56:55;;;;;;;;;;;8.40;99.90;;;;;;5115367;28;20395;-72
2022/04/16 00:59:21;;;;;;;;;;;;;;;;;;5115886;28;19915;-72
2022/04/16 01:01:47;;;;;;;;;;;;;;;;;;5115043;28;19908;-72
2022/04/16 01:04:13;;;;;;;;;;;8.60;99.90;;;;;;5115878;28;20325;-72
2022/04/16 01:06:39;;;;;;;;;;;;;;;;;;5115024;28;20010;-72
2022/04/16 01:09:05;;;;;;;;;;;;;;;;;;5115867;28;19950;-72
2022/04/16 01:11:34;;;;;;;;;;;8.60;99.90;;;;;;5115283;28;19914;-72
2022/04/16 01:14:00;;;;;;;;;;;;;;;;;;5115864;28;19970;-72
2022/04/16 01:16:25;;;;;;;;;;;;;;;;;;5115790;28;19912;-72
2022/04/16 01:18:51;;;;;;;;;;;;;;;;;;5114745;28;20524;-72
2022/04/16 01:21:18;;;;;;;;;;;;;;;;;;5115518;28;20428;-72
2022/04/16 01:23:44;;;;;;;;;;;;;;;;;;5096385;28;19908;-72
2022/04/16 01:26:10;;;;;;;;;;;;;;;;;;5115683;28;19941;-72
2022/04/16 01:28:36;;;;;;;;;;;;;;;;;;5114593;28;19974;-72
2022/04/16 01:31:02;;;;;;;;;;;;;;;;;;5115305;28;19915;-72
2022/04/16 01:33:28;;;;;;;;;;;;;;;;;;5097072;28;20364;-72
2022/04/16 01:35:56;;;;;;;;;;;;;;;;;;5114385;28;19933;-72
2022/04/16 01:38:25;;;;;;;;;;;;;;;;;;5115192;28;20368;-72
2022/04/16 01:40:51;;;;;;;;;;;;;;;;;;5114365;28;20087;-71
2022/04/16 01:43:16;;;;;;;;;;;8.60;99.90;;;;;;5115082;28;19943;-71
2022/04/16 01:45:42;;;;;;;;;;;8.60;99.90;;;;;;5114241;28;20369;-72
2022/04/16 01:48:08;;;;;;;;;;;;;;;;;;5115007;28;20280;-71
2022/04/16 01:50:34;;;;;;;;;;;;;;;;;;5114541;28;19915;-71
2022/04/16 01:53:00;;;;;;;;;;;;;;;;;;5114511;28;19907;-72
2022/04/16 01:55:26;;;;;;;;;;;;;;;;;;5096181;28;20356;-71
2022/04/16 01:57:53;;;;;;;;;;;;;;;;;;5114012;28;19999;-72
2022/04/16 02:00:19;;;;;;;;;;;;;;;;;;5114701;28;19914;-71
2022/04/16 02:02:46;;;;;;;;;;;;;;;;;;5113947;28;20447;-72
2022/04/16 02:05:12;;;;;;;;;;;;;;;;;;5114640;28;19939;-72
2022/04/16 02:07:42;;;;;;;;;;;;;;;;;;5113844;28;19915;-72
2022/04/16 02:10:08;;;;;;;;;;;;;;;;;;5096243;28;20313;-72
2022/04/16 02:12:33;;;;;;;;;;;;;;;;;;5114346;28;20006;-72
2022/04/16 02:14:59;;;;;;;;;;;;;;;;;;5113936;28;19953;-72
2022/04/16 02:17:25;;;;;;;;;;;;;;;;;;5114357;28;19955;-73
2022/04/16 02:19:51;;;;;;;;;;;;;;;;;;5113543;28;20325;-73
2022/04/16 02:22:17;;;;;;;;;;;;;;;;;;5114271;28;20002;-73
2022/04/16 02:24:46;;;;;;;;;;;;;;;;;;5095251;28;19912;-73
2022/04/16 02:27:12;;;;;;;;;;;;;;;;;;5114716;28;20298;-73
2022/04/16 02:29:38;;;;;;;;;;;;;;;;;;5113597;28;19908;-73
2022/04/16 02:32:03;;;;;;;;;;;;;;;;;;5114170;28;19908;-73
2022/04/16 02:34:29;;;;;;;;;;;;;;;;;;5114138;28;19912;-73
2022/04/16 02:36:58;;;;;;;;;;;;;;;;;;5113228;28;20364;-73
2022/04/16 02:39:24;;;;;;;;;;;;;;;;;;5113999;28;19999;-73
2022/04/16 02:41:50;;;;;;;;;;;;;;;;;;5113219;28;19994;-73
2022/04/16 02:47:06;;;;;;;;;;;;;;;;;;5113279;28;20390;-73
2022/04/16 02:49:34;;;;;;;;;;;;;;;;;;5113856;28;19907;-72
2022/04/16 02:52:00;;;;;;;;;;;;;;;;;;5113007;28;19939;-72
2022/04/16 02:54:26;;;;;;;;;;;;;;;;;;5113723;28;20001;-73
2022/04/16 02:56:52;;;;;;;;;;;;;;;;;;5112591;28;20335;-73
2022/04/16 02:59:17;;;;;;;;;;;;;;;;;;5113629;28;19908;-73
2022/04/16 03:01:43;;;;;;;;;;;;;;;;;;5112852;28;20310;-73
2022/04/16 03:04:09;;;;;;;;;;;;;;;;;;5113506;28;19918;-72
2022/04/16 03:06:35;;;;;;;;;;;;;;;;;;5112980;28;19915;-72
2022/04/16 03:09:01;;;;;;;;;;;7.20;99.90;;;;;;5112651;28;20014;-72
2022/04/16 03:11:27;;;;;;;;;;;;;;;;;;5113682;28;19907;-72
2022/04/16 03:13:52;;;;;;;;;;;;;;;;;;5112561;28;19992;-72
2022/04/16 03:19:16;;;;;;;;;;;;;;;;;;5055720;28;19908;-72
2022/04/16 03:21:42;;;;;;;;;;;;;;;;;;5112481;28;20378;-72
2022/04/16 03:24:08;;;;;;;;;;;;;;;;;;5113172;28;19934;-72
2022/04/16 03:26:34;;;;;;;;;;;;;;;;;;5113480;28;19939;-72
2022/04/16 03:29:00;;;;;;;;;;;;;;;;;;5112352;28;19929;-72
2022/04/16 03:31:26;;;;;;;;;;;;;;;;;;5113138;28;19908;-72
2022/04/16 03:33:52;;;;;;;;;;;;;;;;;;5112257;28;19954;-72
2022/04/16 03:36:17;;;;;;;;;;;6.70;99.90;;;;;;5112987;28;19919;-72
2022/04/16 03:38:43;;;;;;;;;;;7.00;99.90;;;;;;5094136;28;19990;-72
2022/04/16 03:41:08;;;;;;;;;;;6.90;99.90;;;;;;5112926;28;19955;-72
2022/04/16 03:43:34;;;;;;;;;;;7.70;99.90;;;;;;5112932;28;19934;-72
2022/04/16 03:46:00;;;;;;;;;;;;;;;;;;5112082;28;19904;-72
2022/04/16 03:48:26;;;;;;;;;;;;;;;;;;5112834;28;19908;-72
2022/04/16 03:50:52;;;;;;;;;;;;;;;;;;5112032;28;20006;-72
2022/04/16 03:53:18;;;;;;;;;;;;;;;;;;5112776;28;19908;-72
2022/04/16 04:01:13;;;;;;;;;;;;;;;;;;5112692;28;19918;-72
2022/04/16 04:03:39;;;;;;;;;;;5.90;99.90;;;;;;5112714;28;20284;-72
2022/04/16 04:06:04;;;;;;;;;;;;;;;;;;5111871;28;19922;-72
2022/04/16 04:08:31;;;;;;;;;;;;;;;;;;5112633;28;19922;-72
2022/04/16 04:10:57;;;;;;;;;;;;;;;;;;5111810;28;19908;-72
2022/04/16 04:13:23;;;;;;;;;;;;;;;;;;5112548;28;19912;-72
2022/04/16 04:15:49;;;;;;;;;;;;;;;;;;5111723;28;20006;-72
2022/04/16 04:18:15;;;;;;;;;;;;;;;;;;5096772;28;19908;-72
2022/04/16 04:20:41;;;;;;;;;;;;;;;;;;5116506;28;19947;-72
2022/04/16 04:23:07;;;;;;;;;;;;;;;;;;5116132;28;20356;-72
2022/04/16 04:25:33;;;;;;;;;;;;;;;;;;5116740;28;20014;-72
2022/04/16 04:27:59;;;;;;;;;;;;;;;;;;5097506;28;20004;-72
2022/04/16 04:30:24;;;;;;;;;;;5.80;99.90;;;;;;5116464;28;19908;-72
2022/04/16 04:32:50;;;;;;;;;;;5.90;99.90;;;;;;5115712;28;19915;-72
2022/04/16 04:35:16;;;;;;;;;;;;;;;;;;5098051;28;19953;-72
2022/04/16 04:37:42;;;;;;;;;;;;;;;;;;5116396;28;19915;-72
2022/04/16 04:40:08;;;;;;;;;;;6.60;99.90;;;;;;5115861;28;19933;-72
2022/04/16 04:42:34;;;;;;;;;;;6.00;99.90;;;;;;5116275;28;20415;-72
2022/04/16 04:45:06;;;;;;;;;;;6.30;99.90;;;;;;5115514;28;19931;-72
2022/04/16 04:47:31;;;;;;;;;;;6.30;99.90;;;;;;5109376;28;20435;-73
2022/04/16 04:49:57;;;;;;;;;;;5.90;99.90;;;;;;5093885;28;19908;-73
2022/04/16 04:52:26;;;;;;;;;;;6.40;99.90;;;;;;5116107;28;19911;-72
2022/04/16 04:54:54;;;;;;;;;;;6.30;99.90;;;;;;5115178;28;19907;-73
2022/04/16 04:57:20;;;;;;;;;;;5.50;99.90;;;;;;5109883;28;19973;-72
2022/04/16 04:59:45;;;;;;;;;;;5.60;99.90;;;;;;5115481;28;20325;-72
2022/04/16 05:02:11;;;;;;;;;;;6.20;99.90;;;;;;5097391;28;20372;-73
2022/04/16 05:04:37;;;;;;;;;;;6.00;99.90;;;;;;5094686;28;20356;-72
2022/04/16 05:07:03;;;;;;;;;;;5.60;99.90;;;;;;5103595;28;19942;-72
2022/04/16 05:09:29;;;;;;;;;;;5.70;99.90;;;;;;5077266;28;19908;-72
2022/04/16 05:11:54;;;;;;;;;;;6.50;99.90;;;;;;5106227;28;20283;-72
2022/04/16 05:14:20;;;;;;;;;;;6.20;99.90;;;;;;5115693;28;19999;-72
2022/04/16 05:16:46;;;;;;;;;;;;;;;;;;5115152;28;19912;-72
2022/04/16 05:19:12;;;;;;;;;;;5.70;99.90;;;;;;5109058;28;19931;-72
2022/04/16 05:21:37;;;;;;;;;;;5.80;99.90;;;;;;5100095;28;19916;-72
2022/04/16 05:24:06;;;;;;;;;;;;;;;;;;5100232;28;19912;-72
2022/04/16 05:26:32;;;;;;;;;;;6.00;99.90;;;;;;5115776;28;19918;-72
2022/04/16 05:28:58;;;;;;;;;;;;;;;;;;5110779;28;19946;-73
2022/04/16 05:31:26;;;;;;;;;;;;;;;;;;5103835;28;19990;-72
2022/04/16 05:36:37;;;;;;;;;;;6.10;99.90;;;;;;5115194;28;20011;-71
2022/04/16 05:39:03;;;;;;;;;;;;;;;;;;5106953;28;19939;-71
2022/04/16 05:41:29;;;;;;;;;;;;;;;;;;5106946;28;20344;-71
2022/04/16 05:43:54;;;;;;;;;;;6.10;99.90;;;;;;5114324;28;19915;-73
2022/04/16 05:46:20;;;;;;;;;;;7.00;99.90;;;;;;5110790;28;19920;-72
2022/04/16 05:48:45;;;;;;;;;;;;;;;;;;5115024;28;19998;-72
2022/04/16 05:51:11;;;;;;;;;;;;;;;;;;5114473;28;19908;-71
2022/04/16 05:53:37;;;;;;;;;;;;;;;;;;5103957;28;20320;-69
2022/04/16 05:56:03;;;;;;;;;;;;;;;;;;5093324;28;19932;-70
2022/04/16 05:58:29;;;;;;;;;;;;;;;;;;5094364;28;19908;-80
2022/04/16 06:00:55;;;;;;;;;;;;;;;;;;5093583;28;19908;-69
2022/04/16 06:03:21;;;;;;;;;;;;;;;;;;5093955;28;19912;-71
2022/04/16 06:05:47;;;;;;;;;;;;;;;;;;5095270;28;20278;-72
2022/04/16 06:08:13;;;;;;;;;;;7.10;99.90;;;;;;5093699;28;19912;-71
2022/04/16 06:10:39;;;;;;;;;;;;;;;;;;5094239;28;19915;-71
2022/04/16 06:13:05;;;;;;;;;;;;;;;;;;5093582;28;19908;-71
2022/04/16 06:15:30;;;;;;;;;;;;;;;;;;5094069;28;19908;-70
2022/04/16 06:17:57;;;;;;;;;;;;;;;;;;5093308;28;19961;-71
2022/04/16 06:20:23;;;;;;;;;;;;;;;;;;5094336;28;19915;-71
2022/04/16 06:22:49;;;;;;;;;;;;;;;;;;5102448;28;19914;-72
2022/04/16 06:25:15;;;;;;;;;;;;;;;;;;5093479;28;19942;-71
2022/04/16 06:27:41;;;;;;;;;;;;;;;;;;5096600;28;19919;-69
2022/04/16 06:30:08;;;;;;;;;;;;;;;;;;5111541;28;19912;-72
2022/04/16 06:32:34;;;;;;;;;;;;;;;;;;5101430;28;19920;-73
2022/04/16 06:35:00;;;;;;;;;;;;;;;;;;5084648;28;19908;-73
2022/04/16 06:37:26;;;;;;;;;;;;;;;;;;5099680;28;19923;-74
2022/04/16 06:39:51;;;;;;;;;;;;;;;;;;5099532;28;19912;-72
2022/04/16 06:42:17;;;;;;;;;;;;;;;;;;5092619;28;20006;-72
2022/04/16 06:44:43;;;;;;;;;;;;;;;;;;5091275;28;19920;-71
2022/04/16 06:47:09;;;;;;;;;;;;;;;;;;5077421;28;19920;-66
2022/04/16 06:49:35;;;;;;;;;;;;;;;;;;5090299;28;19966;-66
2022/04/16 06:52:01;;;;;;;;;;;;;;;;;;5088928;28;19934;-66
2022/04/16 06:54:26;;;;;;;;;;;9.30;99.90;;;;;;5089499;28;20357;-65
2022/04/16 06:56:52;;;;;;;;;;;;;;;;;;5096805;28;19927;-73
2022/04/16 06:59:18;;;;;;;;;;;;;;;;;;5099289;28;19916;-73
2022/04/16 07:01:44;;;;;;;;;;;8.90;99.90;;;;;;5109711;28;20394;-73
2022/04/16 07:04:11;;;;;;;;;;;;;;;;;;5109424;28;19922;-73
2022/04/16 07:06:39;;;;;;;;;;;;;;;;;;5091937;28;20350;-73
2022/04/16 07:09:05;;;;;;;;;;;;;;;;;;5106035;28;19948;-73
2022/04/16 07:11:31;;;;;;;;;;;;;;;;;;5109920;28;19954;-73
2022/04/16 07:13:56;;;;;;;;;;;;;;;;;;5086909;28;19985;-73
2022/04/16 07:16:22;;;;;;;;;;;;;;;;;;5097876;28;19968;-73
2022/04/16 07:18:48;;;;;;;;;;;;;;;;;;5107946;28;19973;-73
2022/04/16 07:21:14;;;;;;;;;;;;;;;;;;5080558;28;20686;-73
2022/04/16 07:23:40;;;;;;;;;;;;;;;;;;5091418;28;20012;-73
2022/04/16 07:26:06;;;;;;;;;;;;;;;;;;5108741;28;19920;-73
2022/04/16 07:28:32;;;;;;;;;;;;;;;;;;5109733;28;19912;-73
2022/04/16 07:30:58;;;;;;;;;;;;;;;;;;5108786;28;20010;-73
2022/04/16 07:33:24;;;;;;;;;;;;;;;;;;5098231;28;19974;-73
2022/04/16 07:35:50;;;;;;;;;;;;;;;;;;5088633;28;20364;-65
2022/04/16 07:38:15;;;;;;;;;;;;;;;;;;5106018;28;19908;-65
2022/04/16 07:40:41;;;;;;;;;;;;;;;;;;5109597;28;20272;-64
2022/04/16 07:43:07;;;;;;;;;;;;;;;;;;5108777;28;19915;-65
2022/04/16 07:45:34;;;;;;;;;;;;;;;;;;5109492;28;19951;-65
2022/04/16 07:48:00;;;;;;;;;;;;;;;;;;5108170;28;20261;-64
2022/04/16 07:50:26;;;;;;;;;;;;;;;;;;5100889;28;19938;-66
2022/04/16 07:52:51;;;;;;;;;;;;;;;;;;5074131;28;19908;-66
2022/04/16 07:55:17;;;;;;;;;;;;;;;;;;5091378;28;19916;-66
2022/04/16 07:57:43;;;;;;;;;;;;;;;;;;5076315;28;19927;-66
2022/04/16 08:00:09;;;;;;;;;;;;;;;;;;5099106;28;19920;-64
2022/04/16 08:02:35;;;;;;;;;;;;;;;;;;5100938;28;20386;-67
2022/04/16 08:05:01;;;;;;;;;;;;;;;;;;5099975;28;20033;-69
2022/04/16 08:07:27;;;;;;;;;;;;;;;;;;5103640;28;19939;-65
2022/04/16 08:09:53;;;;;;;;;;;;;;;;;;5112623;28;19976;-65
2022/04/16 08:12:19;;;;;;;;;;;;;;;;;;5096796;28;19919;-74
2022/04/16 08:14:45;;;;;;;;;;;;;;;;;;5092154;28;19995;-74
2022/04/16 08:17:11;;;;;;;;;;;;;;;;;;5101585;28;19924;-73
2022/04/16 08:19:36;;;;;;;;;;;;;;;;;;5111961;28;20267;-74
2022/04/16 08:22:07;;;;;;;;;;;;;;;;;;5111947;28;19908;-74
2022/04/16 08:26:59;;;;;;;;;;;;;;;;;;5112332;28;20252;-74
2022/04/16 08:29:24;;;;;;;;;;;;;;;;;;5112484;28;19957;-73
2022/04/16 08:31:50;;;;;;;;;;;;;;;;;;5112490;28;19957;-74
2022/04/16 08:34:16;;;;;;;;;;;;;;;;;;5111487;28;20053;-74
2022/04/16 08:36:42;;;;;;;;;;;;;;;;;;5112260;28;19915;-74
2022/04/16 08:39:08;;;;;;;;;;;;;;;;;;5111524;28;20324;-74
2022/04/16 08:41:34;;;;;;;;;;;;;;;;;;5112373;28;19907;-74
2022/04/16 08:44:00;;;;;;;;;;;;;;;;;;5111626;28;19912;-74
2022/04/16 08:46:26;;;;;;;;;;;;;;;;;;5112345;28;19908;-73
2022/04/16 08:48:52;;;;;;;;;;;;;;;;;;5112237;28;20052;-74
2022/04/16 08:51:18;;;;;;;;;;;;;;;;;;5111427;28;19904;-74
2022/04/16 08:53:44;;;;;;;;;;;;;;;;;;5112190;28;19912;-74
2022/04/16 08:56:09;;;;;;;;;;;;;;;;;;5111158;28;19935;-74
2022/04/16 08:58:35;;;;;;;;;;;;;;;;;;5112232;28;19915;-74
2022/04/16 09:01:01;;;;;;;;;;;;;;;;;;5111413;28;20429;-74
2022/04/16 09:03:27;;;;;;;;;;;;;;;;;;5113128;28;19908;-74
2022/04/16 09:05:53;;;;;;;;;;;13.10;28.30;;;;;;5115760;28;20328;-74
2022/04/16 09:08:26;;;;;;;;;;;12.80;29.70;;;;;;5115077;28;19903;-74
2022/04/16 09:10:52;;;;;;;;;;;;;;;;;;5115863;28;19958;-74
2022/04/16 09:13:18;;;;;;;;;;;;;;;;;;5114928;28;19908;-74
2022/04/16 09:15:43;;;;;;;;;;;;;;;;;;5115668;28;20340;-74
2022/04/16 09:18:10;;;;;;;;;;;;;;;;;;5114838;28;19919;-74
2022/04/16 09:20:36;;;;;;;;;;;;;;;;;;5115512;28;19908;-74
2022/04/16 09:23:01;;;;;;;;;;;;;;;;;;5115062;28;19956;-74
2022/04/16 09:25:27;;;;;;;;;;;;;;;;;;5115454;28;19960;-74
2022/04/16 09:27:53;;;;;;;;;;;;;;;;;;5115417;28;19919;-74
2022/04/16 09:30:19;;;;;;;;;;;;;;;;;;5114583;28;20505;-74
2022/04/16 09:32:45;;;;;;;;;;;;;;;;;;5115308;28;20011;-74
2022/04/16 09:35:11;;;;;;;;;;;;;;;;;;5114500;28;20367;-74
2022/04/16 09:37:37;;;;;;;;;;;;;;;;;;5115177;28;20328;-74
2022/04/16 09:40:03;;;;;;;;;;;;;;;;;;5096301;28;19914;-74
2022/04/16 09:42:29;;;;;;;;;;;;;;;;;;5115089;28;20326;-74
2022/04/16 09:44:54;;;;;;;;;;;;;;;;;;5115017;28;19915;-74
2022/04/16 09:47:20;;;;;;;;;;;;;;;;;;5114275;28;19908;-75
2022/04/16 09:49:47;;;;;;;;;;;12.90;8.80;;;;;;5115037;28;20034;-74
2022/04/16 09:52:13;;;;;;;;;;;12.90;11.10;;;;;;5114412;28;19999;-74
2022/04/16 09:54:39;;;;;;;;;;;13.10;13.00;;;;;;5115096;28;20369;-75
2022/04/16 09:57:04;;;;;;;;;;;13.10;14.20;;;;;;5113924;28;20280;-74
2022/04/16 09:59:30;;;;;;;;;;;;;;;;;;5114906;28;19908;-75
2022/04/16 10:01:56;;;;;;;;;;;;;;;;;;5114896;28;19908;-75
2022/04/16 10:04:22;;;;;;;;;;;13.60;5.60;;;;;;5095727;28;19984;-74
2022/04/16 10:06:48;;;;;;;;;;;13.60;5.00;;;;;;5114984;28;20014;-74
2022/04/16 10:09:26;;;;;;;;;;;13.80;11.50;;;;;;5114139;28;19912;-74
2022/04/16 10:14:55;;;;;;;;;;;14.10;1.00;;;;;;5114590;28;19915;-75
2022/04/16 10:17:27;;;;;;;;;;;13.50;1.00;;;;;;5113629;28;19961;-74
2022/04/16 10:19:54;;;;;;;;;;;13.90;1.00;;;;;;5114448;28;19951;-74
2022/04/16 10:22:26;;;;;;;;;;;14.40;4.50;;;;;;5095761;28;20371;-74
2022/04/16 10:24:56;;;;;;;;;;;;;;;;;;5114274;28;19957;-74
2022/04/16 10:27:22;;;;;;;;;;;;;;;;;;5113364;28;19920;-75
2022/04/16 10:29:48;;;;;;;;;;;;;;;;;;5114027;28;19956;-74
2022/04/16 10:32:15;;;;;;;;;;;;;;;;;;5113277;28;20352;-74
2022/04/16 10:34:42;;;;;;;;;;;;;;;;;;5114114;28;20433;-74
2022/04/16 10:37:08;;;;;;;;;;;;;;;;;;5113272;28;19911;-74
2022/04/16 10:39:34;;;;;;;;;;;;;;;;;;5114166;28;20385;-74
2022/04/16 10:42:00;;;;;;;;;;;;;;;;;;5114042;28;19908;-74
2022/04/16 10:44:26;;;;;;;;;;;;;;;;;;5094910;28;20366;-74
2022/04/16 10:46:52;;;;;;;;;;;;;;;;;;5095624;28;19907;-75
2022/04/16 10:49:18;;;;;;;;;;;;;;;;;;5113055;28;19914;-75
2022/04/16 10:51:43;;;;;;;;;;;15.30;1.00;;;;;;5113839;28;19912;-75
2022/04/16 10:54:10;;;;;;;;;;;14.90;1.00;;;;;;5113027;28;19912;-74
2022/04/16 10:56:41;;;;;;;;;;;15.40;1.00;;;;;;5113446;28;19990;-75
2022/04/16 10:59:08;;;;;;;;;;;15.50;1.00;;;;;;5113200;28;19915;-74
2022/04/16 11:01:34;;;;;;;;;;;15.60;1.00;;;;;;5113668;28;19914;-75
2022/04/16 11:04:11;;;;;;;;;;;15.60;1.00;;;;;;5113598;28;19933;-75
2022/04/16 11:06:36;;;;;;;;;;;;;;;;;;5113823;28;19957;-75
2022/04/16 11:09:02;;;;;;;;;;;15.10;1.00;;;;;;5113383;28;19908;-75
2022/04/16 11:11:28;;;;;;;;;;;15.00;1.00;;;;;;5112653;28;20462;-76
2022/04/16 11:13:53;;;;;;;;;;;15.40;1.00;;;;;;5097949;28;20004;-76
2022/04/16 11:16:22;;;;;;;;;;;15.50;1.00;;;;;;5095372;28;20324;-75
2022/04/16 11:18:48;;;;;;;;;;;15.40;1.00;;;;;;5096615;28;19954;-75
2022/04/16 11:21:18;;;;;;;;;;;15.00;1.00;;;;;;5098206;28;20005;-75
2022/04/16 11:23:47;;;;;;;;;;;14.90;1.00;;;;;;5094995;28;19967;-75
2022/04/16 11:34:27;;;;;;;;;;;;;;;;;;5088705;28;19985;-75
2022/04/16 11:36:53;;;;;;;;;;;;;;;;;;5088808;28;20322;-76
2022/04/16 11:39:19;;;;;;;;;;;;;;;;;;5088597;28;19930;-76
2022/04/16 11:41:52;;;;;;;;;;;15.80;1.00;;;;;;5091471;28;20384;-75
2022/04/16 11:44:38;;;;;;;;;;;16.00;1.00;;;;;;5105704;28;19919;-76
2022/04/16 11:47:04;;;;;;;;;;;;;;;;;;5087107;28;19916;-75
2022/04/16 11:49:30;;;;;;;;;;;;;;;;;;5095611;28;20514;-76
2022/04/16 11:51:56;;;;;;;;;;;;;;;;;;5098371;28;19915;-75
2022/04/16 11:54:22;;;;;;;;;;;;;;;;;;5098132;28;19974;-76
2022/04/16 11:56:51;;;;;;;;;;;16.60;1.00;;;;;;5096743;28;19928;-75
2022/04/16 11:59:17;;;;;;;;;;;;;;;;;;5081436;28;20009;-75
2022/04/16 12:01:42;;;;;;;;;;;;;;;;;;5096993;28;19912;-75
2022/04/16 12:04:08;;;;;;;;;;;;;;;;;;5097706;28;20283;-75
2022/04/16 12:06:34;;;;;;;;;;;;;;;;;;5096336;28;19916;-76
2022/04/16 12:09:01;;;;;;;;;;;;;;;;;;5096794;28;19961;-75
2022/04/16 12:11:27;;;;;;;;;;;16.80;1.00;;;;;;5095239;28;19968;-76
2022/04/16 12:13:54;;;;;;;;;;;16.60;1.00;;;;;;5097886;28;19946;-76
2022/04/16 12:16:20;;;;;;;;;;;;;;;;;;5095702;28;19923;-76
2022/04/16 12:18:49;;;;;;;;;;;16.90;1.00;;;;;;5080289;28;19912;-76
2022/04/16 12:21:15;;;;;;;;;;;17.00;1.00;;;;;;5095646;28;19923;-76
2022/04/16 12:23:43;;;;;;;;;;;17.40;1.00;;;;;;5079204;28;20007;-76
2022/04/16 12:26:12;;;;;;;;;;;17.70;1.00;;;;;;5097686;28;20419;-75
2022/04/16 12:28:39;;;;;;;;;;;17.00;1.00;;;;;;5097231;28;19912;-76
2022/04/16 12:31:05;;;;;;;;;;;;;;;;;;5095619;28;19916;-76
2022/04/16 12:33:31;;;;;;;;;;;;;;;;;;5103067;28;19953;-76
2022/04/16 12:35:57;;;;;;;;;;;;;;;;;;5098814;28;20443;-76
2022/04/16 12:38:24;;;;;;;;;;;17.50;1.00;;;;;;5098255;28;20434;-76
2022/04/16 12:41:10;;;;;;;;;;;17.30;1.00;;;;;;5082802;28;20307;-75
2022/04/16 12:43:37;;;;;;;;;;;17.40;1.00;;;;;;5100429;28;19915;-76
2022/04/16 12:46:02;;;;;;;;;;;;;;;;;;5102136;28;20707;-77
2022/04/16 12:48:28;;;;;;;;;;;;;;;;;;5098962;28;19999;-77
2022/04/16 12:50:54;;;;;;;;;;;;;;;;;;5101793;28;19915;-76
2022/04/16 12:53:20;;;;;;;;;;;;;;;;;;5101364;28;20009;-77
2022/04/16 12:55:46;;;;;;;;;;;;;;;;;;5084955;28;20397;-77
2022/04/16 12:58:12;;;;;;;;;;;;;;;;;;5112005;28;19911;-76
2022/04/16 13:00:38;;;;;;;;;;;;;;;;;;5112190;28;20027;-76
2022/04/16 13:03:04;;;;;;;;;;;;;;;;;;5094360;28;19912;-77
2022/04/16 13:05:30;;;;;;;;;;;;;;;;;;5111961;28;20356;-77
2022/04/16 13:07:58;;;;;;;;;;;;;;;;;;5112482;28;19912;-78
2022/04/16 13:10:24;;;;;;;;;;;;;;;;;;5111147;28;19915;-77
2022/04/16 13:12:50;;;;;;;;;;;;;;;;;;5111971;28;20345;-77
2022/04/16 13:15:16;;;;;;;;;;;;;;;;;;5099510;28;19989;-77
2022/04/16 13:17:42;;;;;;;;;;;18.70;1.00;;;;;;5104521;28;20326;-78
2022/04/16 13:20:09;;;;;;;;;;;;;;;;;;5102251;28;19935;-76
2022/04/16 13:22:35;;;;;;;;;;;;;;;;;;5101697;28;19935;-77
2022/04/16 13:25:00;;;;;;;;;;;;;;;;;;5085982;28;20407;-78
2022/04/16 13:27:26;;;;;;;;;;;;;;;;;;5104156;28;19914;-67
2022/04/16 13:29:52;;;;;;;;;;;;;;;;;;5103311;28;19915;-78
2022/04/16 13:32:18;;;;;;;;;;;;;;;;;;5114611;28;20279;-78
2022/04/16 13:34:45;;;;;;;;;;;;;;;;;;5115089;28;19919;-79
2022/04/16 13:37:11;;;;;;;;;;;;;;;;;;5114850;28;19919;-76
2022/04/16 13:42:21;;;;;;;;;;;;;;;;;;5114552;28;19996;-78
2022/04/16 13:44:47;;;;;;;;;;;;;;;;;;5114988;28;19908;-79
2022/04/16 13:47:13;;;;;;;;;;;;;;;;;;5114584;28;20428;-76
2022/04/16 13:49:39;;;;;;;;;;;;;;;;;;5096272;28;20042;-79
2022/04/16 13:52:05;;;;;;;;;;;;;;;;;;5096729;28;19908;-79
2022/04/16 13:54:31;;;;;;;;;;;;;;;;;;5114256;28;20006;-79
2022/04/16 13:56:57;;;;;;;;;;;;;;;;;;5114899;28;20018;-80
2022/04/16 13:59:23;;;;;;;;;;;;;;;;;;5095878;28;19930;-79
2022/04/16 14:01:50;;;;;;;;;;;;;;;;;;5114923;28;19914;-81
2022/04/16 14:04:16;;;;;;;;;;;;;;;;;;5114054;28;19908;-75
2022/04/16 14:06:42;;;;;;;;;;;;;;;;;;5114728;28;19915;-78
2022/04/16 14:09:08;;;;;;;;;;;;;;;;;;5096401;28;19908;-79
2022/04/16 14:11:34;;;;;;;;;;;;;;;;;;5113793;28;19915;-79
2022/04/16 14:14:00;;;;;;;;;;;;;;;;;;5096240;28;19954;-79
2022/04/16 14:16:26;;;;;;;;;;;;;;;;;;5113662;28;19919;-79
2022/04/16 14:18:52;;;;;;;;;;;;;;;;;;5114757;28;19943;-79
2022/04/16 14:21:17;;;;;;;;;;;;;;;;;;5113852;28;19908;-78
2022/04/16 14:23:43;;;;;;;;;;;;;;;;;;5114391;28;20455;-79
2022/04/16 14:26:09;;;;;;;;;;;;;;;;;;5114824;28;19916;-79
2022/04/16 14:28:35;;;;;;;;;;;;;;;;;;5113717;28;20546;-78
2022/04/16 14:31:01;;;;;;;;;;;;;;;;;;5114326;28;19908;-79
2022/04/16 14:33:28;;;;;;;;;;;;;;;;;;5095093;28;19908;-78
2022/04/16 14:35:53;;;;;;;;;;;;;;;;;;5114331;28;19992;-81
2022/04/16 14:38:20;;;;;;;;;;;;;;;;;;5113315;28;19912;-79
2022/04/16 14:40:46;;;;;;;;;;;;;;;;;;5114055;28;20014;-77
2022/04/16 14:43:12;;;;;;;;;;;;;;;;;;5114199;28;20034;-77
2022/04/16 14:45:38;;;;;;;;;;;;;;;;;;5113140;28;20264;-77
2022/04/16 14:48:04;;;;;;;;;;;;;;;;;;5113940;28;19912;-77
2022/04/16 14:50:30;;;;;;;;;;;;;;;;;;5094821;28;19912;-78
2022/04/16 14:52:56;;;;;;;;;;;;;;;;;;5113820;28;20383;-77
2022/04/16 14:55:22;;;;;;;;;;;;;;;;;;5112810;28;20008;-76
2022/04/16 14:57:48;;;;;;;;;;;;;;;;;;5113693;28;19919;-77
2022/04/16 15:00:14;;;;;;;;;;;;;;;;;;5113628;28;19973;-77
2022/04/16 15:02:40;;;;;;;;;;;;;;;;;;5113887;28;19904;-77
2022/04/16 15:05:06;;;;;;;;;;;;;;;;;;5113737;28;19912;-79
2022/04/16 15:07:31;;;;;;;;;;;;;;;;;;5112738;28;20446;-78
2022/04/16 15:09:57;;;;;;;;;;;;;;;;;;5095365;28;20006;-78
2022/04/16 15:12:26;;;;;;;;;;;;;;;;;;5094259;28;20380;-79
2022/04/16 15:14:52;;;;;;;;;;;;;;;;;;5113485;28;19908;-79
2022/04/16 15:17:24;;;;;;;;;;;;;;;;;;5112836;28;20375;-76
2022/04/16 15:19:50;;;;;;;;;;;;;;;;;;5113803;28;19995;-80
2022/04/16 15:22:17;;;;;;;;;;;;;;;;;;5113476;28;19950;-79
2022/04/16 15:24:43;;;;;;;;;;;;;;;;;;5113577;28;19907;-79
2022/04/16 15:27:09;;;;;;;;;;;;;;;;;;5113678;28;19950;-81
2022/04/16 15:29:35;;;;;;;;;;;;;;;;;;5112432;28;19908;-80
2022/04/16 15:32:01;;;;;;;;;;;;;;;;;;5113138;28;19908;-81
2022/04/16 15:34:27;;;;;;;;;;;;;;;;;;5112259;28;20372;-80
2022/04/16 15:36:52;;;;;;;;;;;;;;;;;;5113097;28;19912;-81
2022/04/16 15:39:20;;;;;;;;;;;;;;;;;;5112797;28;19987;-76
2022/04/16 15:41:46;;;;;;;;;;;;;;;;;;5112841;28;20368;-83
2022/04/16 15:44:12;;;;;;;;;;;;;;;;;;5113102;28;19908;-82
2022/04/16 15:46:38;;;;;;;;;;;;;;;;;;5112263;28;19907;-83
2022/04/16 15:49:03;;;;;;;;;;;;;;;;;;5113049;28;19907;-82
2022/04/16 15:51:29;;;;;;;;;;;;;;;;;;5112139;28;20307;-82
2022/04/16 15:53:56;;;;;;;;;;;;;;;;;;5112933;28;19915;-82
2022/04/16 15:56:21;;;;;;;;;;;;;;;;;;5111941;28;20388;-77
2022/04/16 15:58:47;;;;;;;;;;;;;;;;;;5094501;28;20018;-83
2022/04/16 16:01:13;;;;;;;;;;;;;;;;;;5112531;28;19915;-80
2022/04/16 16:03:39;;;;;;;;;;;;;;;;;;5111941;28;20049;-81
2022/04/16 16:06:05;;;;;;;;;;;;;;;;;;5112828;28;19908;-80
2022/04/16 16:08:31;;;;;;;;;;;;;;;;;;5111949;28;20037;-80
2022/04/16 16:10:57;;;;;;;;;;;;;;;;;;5112752;28;20283;-81
2022/04/16 16:13:23;;;;;;;;;;;;;;;;;;5114773;28;19915;-76
2022/04/16 16:15:49;;;;;;;;;;;;;;;;;;5098549;28;19908;-82
2022/04/16 16:18:15;;;;;;;;;;;;;;;;;;5116837;28;19999;-82
2022/04/16 16:20:41;;;;;;;;;;;;;;;;;;5116060;28;20502;-82
2022/04/16 16:23:07;;;;;;;;;;;;;;;;;;5116795;28;19908;-82
2022/04/16 16:25:34;;;;;;;;;;;;;;;;;;5116068;28;19976;-82
2022/04/16 16:27:59;;;;;;;;;;;;;;;;;;5116789;28;20345;-81
2022/04/16 16:30:25;;;;;;;;;;;;;;;;;;5115879;28;19908;-80
2022/04/16 16:32:51;;;;;;;;;;;;;;;;;;5116623;28;19912;-81
2022/04/16 16:35:18;;;;;;;;;;;;;;;;;;5116481;28;20271;-81